Nipawin Airport
CYBU : rendu visible

Aérodrome :











RETROUVEZ-NOUS SUR...

 
LOGIN :

S'inscrire | Disclaimer

   EN    FR    IT 

 









Légende :    VFR   VFR Marginal   IFR   IFR Intensif   IFR Très Intensif
Visi : 
Plafond : 
>= 8 km
>= 3000ft
5 à 8 km
1000 à 3000 ft
1500m à 5 km
500 à 1000 ft
800 à 1500m
200 à 500 ft
< 800m
< 200 ft
Symboles :   Orages  Brouillard  Fortes neiges  Fortes précipitations  Vent > 20 kt






- Altitude de l'aérodrome : 1220 ft


CYBU - Nipawin

DERNIER METAR :
  • 281300Z AUTO 29011G17KT 9SM BKN016 OVC029 04/02 A3014 RMK SLP224

METARs EXPIRÉS :
  • 281256Z AUTO 30010G16KT 9SM BKN016 OVC029 04/02 A3013 RMK SLP222
  • 281200Z AUTO 30013KT 9SM OVC029 04/02 A3010 RMK SLP212
  • 281122Z AUTO 30013KT 9SM SCT015 OVC035 04/02 A3009 RMK SLP207
  • 281100Z AUTO 30011G17KT 9SM BKN017 OVC022 04/02 A3009 RMK SLP206

TAF N/A
FIR CZWG / Amérique du Nord



MET'MAP, la Météo Aéronautique d'un coup d'oeil ! - Copyright ORBIFLY Décembre 2007 - Disclaimer

ORBIFLY MET'MAP TEAM :

Programmation & Développement : Alexandra Zaïnal
Sur une idée originale de : Baudouin d'Aumeries
Assistance à la programmation : Marc-Olivier Méhu
Soutien technique & logistique : Manuel Goepfert

Contact : metmap@orbifly.com




SOURCES & CREDITS :

   NOAA       Earth
Advisory